sensor_id;sensor_type;location;lat;lon;timestamp;pressure;altitude;pressure_sealevel;temperature;humidity
57234;BME280;43090;52.604;13.318;2023-08-07T00:01:56;99716.81;;;15.54;96.05
57234;BME280;43090;52.604;13.318;2023-08-07T00:04:23;99736.94;;;15.85;96.98
57234;BME280;43090;52.604;13.318;2023-08-07T00:06:49;99738.75;;;15.68;97.16
57234;BME280;43090;52.604;13.318;2023-08-07T00:09:16;99736.09;;;15.76;97.00
57234;BME280;43090;52.604;13.318;2023-08-07T00:11:42;99727.78;;;15.61;97.21
57234;BME280;43090;52.604;13.318;2023-08-07T00:14:09;99709.78;;;15.70;96.65
57234;BME280;43090;52.604;13.318;2023-08-07T00:16:35;99729.66;;;15.60;98.38
57234;BME280;43090;52.604;13.318;2023-08-07T00:19:02;99733.53;;;15.74;98.25
57234;BME280;43090;52.604;13.318;2023-08-07T00:21:29;99728.81;;;15.76;97.50
57234;BME280;43090;52.604;13.318;2023-08-07T00:23:55;99736.75;;;15.70;98.50
57234;BME280;43090;52.604;13.318;2023-08-07T00:26:22;99719.88;;;15.59;98.42
57234;BME280;43090;52.604;13.318;2023-08-07T00:28:48;99718.72;;;15.78;97.67
57234;BME280;43090;52.604;13.318;2023-08-07T00:31:15;99721.78;;;15.84;98.32
57234;BME280;43090;52.604;13.318;2023-08-07T00:33:41;99715.00;;;15.79;98.33
57234;BME280;43090;52.604;13.318;2023-08-07T00:36:08;99718.88;;;15.69;98.14
57234;BME280;43090;52.604;13.318;2023-08-07T00:38:35;99703.63;;;15.35;99.03
57234;BME280;43090;52.604;13.318;2023-08-07T00:41:01;99718.88;;;15.52;98.71
57234;BME280;43090;52.604;13.318;2023-08-07T00:43:28;99709.19;;;15.33;99.92
57234;BME280;43090;52.604;13.318;2023-08-07T00:45:54;99704.16;;;15.46;99.77
57234;BME280;43090;52.604;13.318;2023-08-07T00:48:21;99690.88;;;15.61;99.02
57234;BME280;43090;52.604;13.318;2023-08-07T00:50:48;99706.03;;;15.54;99.35
57234;BME280;43090;52.604;13.318;2023-08-07T00:53:14;99708.03;;;15.36;100.00
57234;BME280;43090;52.604;13.318;2023-08-07T00:55:42;99707.72;;;15.39;98.94
57234;BME280;43090;52.604;13.318;2023-08-07T00:58:08;99677.38;;;15.45;97.92
57234;BME280;43090;52.604;13.318;2023-08-07T01:00:35;99699.63;;;15.55;98.15
57234;BME280;43090;52.604;13.318;2023-08-07T01:03:05;99689.78;;;15.21;99.03
57234;BME280;43090;52.604;13.318;2023-08-07T01:05:34;99724.56;;;15.41;98.61
57234;BME280;43090;52.604;13.318;2023-08-07T01:08:01;99703.00;;;15.49;98.68
57234;BME280;43090;52.604;13.318;2023-08-07T01:10:40;99727.13;;;15.51;98.57
57234;BME280;43090;52.604;13.318;2023-08-07T01:13:18;99702.16;;;15.65;98.13
57234;BME280;43090;52.604;13.318;2023-08-07T01:15:49;99700.84;;;15.77;97.55
57234;BME280;43090;52.604;13.318;2023-08-07T01:18:18;99703.72;;;15.84;97.67
57234;BME280;43090;52.604;13.318;2023-08-07T01:20:46;99689.53;;;15.74;97.70
57234;BME280;43090;52.604;13.318;2023-08-07T01:23:12;99687.84;;;15.64;98.00
57234;BME280;43090;52.604;13.318;2023-08-07T01:25:39;99686.00;;;15.73;97.11
57234;BME280;43090;52.604;13.318;2023-08-07T01:30:46;99692.22;;;15.65;97.92
57234;BME280;43090;52.604;13.318;2023-08-07T01:33:24;99686.16;;;15.80;96.79
57234;BME280;43090;52.604;13.318;2023-08-07T01:51:52;99672.69;;;14.53;100.00
57234;BME280;43090;52.604;13.318;2023-08-07T01:54:19;99663.72;;;14.79;100.00
57234;BME280;43090;52.604;13.318;2023-08-07T01:56:45;99669.38;;;15.02;100.00
57234;BME280;43090;52.604;13.318;2023-08-07T01:59:11;99677.81;;;15.15;100.00
57234;BME280;43090;52.604;13.318;2023-08-07T02:01:38;99676.66;;;15.18;100.00
57234;BME280;43090;52.604;13.318;2023-08-07T02:04:04;99680.69;;;15.06;100.00
57234;BME280;43090;52.604;13.318;2023-08-07T02:06:31;99659.81;;;15.24;100.00
57234;BME280;43090;52.604;13.318;2023-08-07T02:08:57;99674.31;;;15.40;100.00
57234;BME280;43090;52.604;13.318;2023-08-07T02:11:24;99683.28;;;15.48;100.00
57234;BME280;43090;52.604;13.318;2023-08-07T02:13:50;99663.69;;;15.30;100.00
57234;BME280;43090;52.604;13.318;2023-08-07T02:16:17;99675.84;;;15.42;100.00
57234;BME280;43090;52.604;13.318;2023-08-07T02:18:43;99688.97;;;15.37;99.74
57234;BME280;43090;52.604;13.318;2023-08-07T02:21:10;99686.97;;;15.47;100.00
57234;BME280;43090;52.604;13.318;2023-08-07T02:23:37;99672.84;;;15.54;99.45
57234;BME280;43090;52.604;13.318;2023-08-07T02:26:06;99679.00;;;15.21;100.00
57234;BME280;43090;52.604;13.318;2023-08-07T02:28:33;99682.03;;;15.02;100.00
57234;BME280;43090;52.604;13.318;2023-08-07T02:30:59;99673.25;;;15.08;100.00
57234;BME280;43090;52.604;13.318;2023-08-07T02:33:26;99657.41;;;14.96;100.00
57234;BME280;43090;52.604;13.318;2023-08-07T02:35:52;99688.97;;;15.37;100.00
57234;BME280;43090;52.604;13.318;2023-08-07T02:38:19;99686.63;;;15.26;100.00
57234;BME280;43090;52.604;13.318;2023-08-07T02:40:45;99691.50;;;15.22;100.00
57234;BME280;43090;52.604;13.318;2023-08-07T02:43:12;99688.44;;;15.25;100.00
57234;BME280;43090;52.604;13.318;2023-08-07T02:45:39;99705.50;;;15.26;100.00
57234;BME280;43090;52.604;13.318;2023-08-07T02:48:05;99682.31;;;14.90;100.00
57234;BME280;43090;52.604;13.318;2023-08-07T02:50:32;99690.81;;;15.20;100.00
57234;BME280;43090;52.604;13.318;2023-08-07T02:53:01;99708.91;;;14.93;100.00
57234;BME280;43090;52.604;13.318;2023-08-07T02:55:28;99693.78;;;14.92;100.00
57234;BME280;43090;52.604;13.318;2023-08-07T02:57:55;99684.00;;;14.91;100.00
57234;BME280;43090;52.604;13.318;2023-08-07T03:00:21;99685.84;;;14.91;100.00
57234;BME280;43090;52.604;13.318;2023-08-07T03:02:50;99690.81;;;15.20;100.00
57234;BME280;43090;52.604;13.318;2023-08-07T03:05:16;99691.72;;;15.45;100.00
57234;BME280;43090;52.604;13.318;2023-08-07T03:07:43;99702.97;;;15.24;100.00
57234;BME280;43090;52.604;13.318;2023-08-07T03:10:10;99694.06;;;15.32;100.00
57234;BME280;43090;52.604;13.318;2023-08-07T03:12:37;99692.66;;;15.20;100.00
57234;BME280;43090;52.604;13.318;2023-08-07T03:15:05;99695.91;;;15.40;100.00
57234;BME280;43090;52.604;13.318;2023-08-07T03:17:32;99697.63;;;15.57;100.00
57234;BME280;43090;52.604;13.318;2023-08-07T03:19:58;99681.59;;;15.47;100.00
57234;BME280;43090;52.604;13.318;2023-08-07T03:22:25;99696.16;;;15.12;100.00
57234;BME280;43090;52.604;13.318;2023-08-07T03:24:51;99678.19;;;15.29;100.00
57234;BME280;43090;52.604;13.318;2023-08-07T03:27:18;99681.75;;;15.38;100.00
57234;BME280;43090;52.604;13.318;2023-08-07T03:29:44;99717.09;;;15.18;100.00
57234;BME280;43090;52.604;13.318;2023-08-07T03:32:11;99706.31;;;15.26;100.00
57234;BME280;43090;52.604;13.318;2023-08-07T03:34:38;99699.22;;;15.17;100.00
57234;BME280;43090;52.604;13.318;2023-08-07T03:37:05;99692.63;;;15.03;100.00
57234;BME280;43090;52.604;13.318;2023-08-07T03:39:31;99719.44;;;15.21;100.00
57234;BME280;43090;52.604;13.318;2023-08-07T03:41:58;99705.59;;;14.99;100.00
57234;BME280;43090;52.604;13.318;2023-08-07T03:44:24;99701.16;;;14.90;100.00
57234;BME280;43090;52.604;13.318;2023-08-07T03:46:51;99681.78;;;14.87;100.00
57234;BME280;43090;52.604;13.318;2023-08-07T03:49:17;99686.22;;;15.04;100.00
57234;BME280;43090;52.604;13.318;2023-08-07T03:51:44;99708.44;;;14.98;100.00
57234;BME280;43090;52.604;13.318;2023-08-07T03:54:10;99715.75;;;15.14;100.00
57234;BME280;43090;52.604;13.318;2023-08-07T03:56:37;99696.16;;;15.04;100.00
57234;BME280;43090;52.604;13.318;2023-08-07T03:59:04;99721.16;;;15.30;100.00
57234;BME280;43090;52.604;13.318;2023-08-07T04:01:30;99721.13;;;15.14;100.00
57234;BME280;43090;52.604;13.318;2023-08-07T04:03:57;99700.88;;;15.02;100.00
57234;BME280;43090;52.604;13.318;2023-08-07T04:06:24;99707.16;;;15.19;100.00
57234;BME280;43090;52.604;13.318;2023-08-07T04:08:53;99715.91;;;15.12;100.00
57234;BME280;43090;52.604;13.318;2023-08-07T04:11:19;99706.84;;;15.22;100.00
57234;BME280;43090;52.604;13.318;2023-08-07T04:13:46;99698.72;;;15.13;100.00
57234;BME280;43090;52.604;13.318;2023-08-07T04:16:12;99703.25;;;15.13;100.00
57234;BME280;43090;52.604;13.318;2023-08-07T04:18:39;99712.22;;;15.22;100.00
57234;BME280;43090;52.604;13.318;2023-08-07T04:21:05;99706.03;;;14.87;100.00
57234;BME280;43090;52.604;13.318;2023-08-07T04:23:32;99698.69;;;15.05;100.00
57234;BME280;43090;52.604;13.318;2023-08-07T04:25:59;99728.59;;;15.45;100.00
57234;BME280;43090;52.604;13.318;2023-08-07T04:28:28;99700.56;;;15.13;100.00
57234;BME280;43090;52.604;13.318;2023-08-07T04:30:54;99703.63;;;15.35;100.00
57234;BME280;43090;52.604;13.318;2023-08-07T04:33:21;99711.94;;;15.41;100.00
57234;BME280;43090;52.604;13.318;2023-08-07T04:35:47;99711.94;;;15.41;100.00
57234;BME280;43090;52.604;13.318;2023-08-07T04:38:15;99719.16;;;15.49;100.00
57234;BME280;43090;52.604;13.318;2023-08-07T04:40:49;99707.72;;;15.55;100.00
57234;BME280;43090;52.604;13.318;2023-08-07T04:43:18;99706.19;;;15.36;100.00
57234;BME280;43090;52.604;13.318;2023-08-07T04:45:47;99723.31;;;15.19;100.00
57234;BME280;43090;52.604;13.318;2023-08-07T04:48:14;99712.72;;;15.25;100.00
57234;BME280;43090;52.604;13.318;2023-08-07T04:50:41;99711.41;;;15.29;100.00
57234;BME280;43090;52.604;13.318;2023-08-07T04:53:08;99717.47;;;15.40;100.00
57234;BME280;43090;52.604;13.318;2023-08-07T04:55:35;99727.91;;;15.35;100.00
57234;BME280;43090;52.604;13.318;2023-08-07T04:58:01;99728.59;;;15.28;100.00
57234;BME280;43090;52.604;13.318;2023-08-07T05:00:28;99730.38;;;15.03;100.00
57234;BME280;43090;52.604;13.318;2023-08-07T05:02:55;99729.56;;;15.19;100.00
57234;BME280;43090;52.604;13.318;2023-08-07T05:05:22;99728.03;;;15.08;100.00
57234;BME280;43090;52.604;13.318;2023-08-07T05:07:49;99719.59;;;15.11;100.00
57234;BME280;43090;52.604;13.318;2023-08-07T05:10:16;99735.97;;;15.18;100.00
57234;BME280;43090;52.604;13.318;2023-08-07T05:12:42;99726.63;;;14.96;100.00
57234;BME280;43090;52.604;13.318;2023-08-07T05:15:09;99722.16;;;15.21;100.00
57234;BME280;43090;52.604;13.318;2023-08-07T05:17:35;99743.38;;;15.16;100.00
57234;BME280;43090;52.604;13.318;2023-08-07T05:20:02;99720.03;;;14.90;100.00
57234;BME280;43090;52.604;13.318;2023-08-07T05:22:29;99739.66;;;15.09;100.00
57234;BME280;43090;52.604;13.318;2023-08-07T05:24:55;99729.50;;;15.03;100.00
57234;BME280;43090;52.604;13.318;2023-08-07T05:27:22;99739.91;;;14.89;100.00
57234;BME280;43090;52.604;13.318;2023-08-07T05:29:48;99737.22;;;14.97;100.00
57234;BME280;43090;52.604;13.318;2023-08-07T05:32:15;99735.28;;;15.16;100.00
57234;BME280;43090;52.604;13.318;2023-08-07T05:34:41;99750.44;;;15.09;100.00
57234;BME280;43090;52.604;13.318;2023-08-07T05:37:08;99733.56;;;15.07;100.00
57234;BME280;43090;52.604;13.318;2023-08-07T05:39:35;99734.28;;;15.25;100.00
57234;BME280;43090;52.604;13.318;2023-08-07T05:42:02;99759.22;;;15.11;100.00
57234;BME280;43090;52.604;13.318;2023-08-07T05:44:29;99753.50;;;15.22;100.00
57234;BME280;43090;52.604;13.318;2023-08-07T05:46:56;99756.91;;;15.24;100.00
57234;BME280;43090;52.604;13.318;2023-08-07T05:49:22;99758.84;;;15.06;100.00
57234;BME280;43090;52.604;13.318;2023-08-07T05:51:51;99765.00;;;15.32;100.00
57234;BME280;43090;52.604;13.318;2023-08-07T05:54:21;99758.56;;;15.25;100.00
57234;BME280;43090;52.604;13.318;2023-08-07T05:56:47;99764.00;;;15.42;100.00
57234;BME280;43090;52.604;13.318;2023-08-07T05:59:14;99768.78;;;15.73;100.00
57234;BME280;43090;52.604;13.318;2023-08-07T06:01:41;99762.59;;;15.21;100.00
57234;BME280;43090;52.604;13.318;2023-08-07T06:04:08;99748.28;;;15.21;100.00
57234;BME280;43090;52.604;13.318;2023-08-07T06:06:35;99765.72;;;15.43;100.00
57234;BME280;43090;52.604;13.318;2023-08-07T06:09:02;99772.28;;;15.40;100.00
57234;BME280;43090;52.604;13.318;2023-08-07T06:11:30;99768.78;;;15.56;100.00
57234;BME280;43090;52.604;13.318;2023-08-07T06:13:57;99775.88;;;15.74;100.00
57234;BME280;43090;52.604;13.318;2023-08-07T06:16:23;99768.13;;;15.62;100.00
57234;BME280;43090;52.604;13.318;2023-08-07T06:18:50;99767.13;;;15.72;100.00
57234;BME280;43090;52.604;13.318;2023-08-07T06:21:16;99789.72;;;15.79;98.17
57234;BME280;43090;52.604;13.318;2023-08-07T06:23:43;99794.16;;;15.88;98.51
57234;BME280;43090;52.604;13.318;2023-08-07T06:26:09;99791.41;;;15.80;97.97
57234;BME280;43090;52.604;13.318;2023-08-07T06:28:42;99756.94;;;15.49;98.51
57234;BME280;43090;52.604;13.318;2023-08-07T06:31:10;99797.00;;;15.78;97.37
57234;BME280;43090;52.604;13.318;2023-08-07T06:33:38;99786.41;;;15.93;94.88
57234;BME280;43090;52.604;13.318;2023-08-07T06:39:16;99789.63;;;15.97;96.46
57234;BME280;43090;52.604;13.318;2023-08-07T06:41:42;99804.13;;;16.21;94.81
57234;BME280;43090;52.604;13.318;2023-08-07T06:44:09;99798.19;;;15.84;93.73
57234;BME280;43090;52.604;13.318;2023-08-07T06:46:38;99793.31;;;15.96;93.03
57234;BME280;43090;52.604;13.318;2023-08-07T06:49:06;99782.69;;;15.94;94.41
57234;BME280;43090;52.604;13.318;2023-08-07T06:51:35;99798.53;;;15.81;92.62
57234;BME280;43090;52.604;13.318;2023-08-07T06:54:02;99810.03;;;16.16;92.68
57234;BME280;43090;52.604;13.318;2023-08-07T06:56:29;99816.78;;;16.04;92.23
57234;BME280;43090;52.604;13.318;2023-08-07T06:58:58;99811.69;;;15.92;90.47
57234;BME280;43090;52.604;13.318;2023-08-07T07:01:31;99810.72;;;16.26;91.86
57234;BME280;43090;52.604;13.318;2023-08-07T07:04:15;99813.25;;;16.28;90.86
57234;BME280;43090;52.604;13.318;2023-08-07T07:06:41;99815.06;;;16.52;88.60
57234;BME280;43090;52.604;13.318;2023-08-07T07:09:08;99787.94;;;16.29;87.96
57234;BME280;43090;52.604;13.318;2023-08-07T07:11:53;99809.19;;;16.57;88.96
57234;BME280;43090;52.604;13.318;2023-08-07T07:14:21;99816.28;;;16.41;87.98
57234;BME280;43090;52.604;13.318;2023-08-07T07:16:59;99777.94;;;16.38;87.97
57234;BME280;43090;52.604;13.318;2023-08-07T07:19:31;99806.16;;;16.43;84.73
57234;BME280;43090;52.604;13.318;2023-08-07T07:21:58;99801.22;;;16.63;84.42
57234;BME280;43090;52.604;13.318;2023-08-07T07:24:25;99822.66;;;16.90;85.27
57234;BME280;43090;52.604;13.318;2023-08-07T07:27:14;99809.50;;;16.54;85.38
57234;BME280;43090;52.604;13.318;2023-08-07T07:32:56;99813.91;;;16.63;83.78
57234;BME280;43090;52.604;13.318;2023-08-07T07:35:29;99821.13;;;16.95;81.81
57234;BME280;43090;52.604;13.318;2023-08-07T07:52:46;99832.06;;;17.02;83.21
57234;BME280;43090;52.604;13.318;2023-08-07T07:55:13;99843.78;;;17.42;82.10
57234;BME280;43090;52.604;13.318;2023-08-07T07:57:40;99846.97;;;16.98;81.79
57234;BME280;43090;52.604;13.318;2023-08-07T08:00:09;99854.09;;;16.91;84.16
57234;BME280;43090;52.604;13.318;2023-08-07T08:02:38;99838.34;;;17.03;84.06
57234;BME280;43090;52.604;13.318;2023-08-07T08:05:18;99835.16;;;16.91;81.96
57234;BME280;43090;52.604;13.318;2023-08-07T08:08:25;99852.53;;;17.05;80.16
57234;BME280;43090;52.604;13.318;2023-08-07T08:10:58;99851.69;;;16.88;80.79
57234;BME280;43090;52.604;13.318;2023-08-07T08:13:28;99841.75;;;16.96;81.38
57234;BME280;43090;52.604;13.318;2023-08-07T08:16:07;99830.75;;;16.98;81.86
57234;BME280;43090;52.604;13.318;2023-08-07T08:19:17;99824.06;;;17.17;81.94
57234;BME280;43090;52.604;13.318;2023-08-07T08:21:46;99862.53;;;17.44;82.89
57234;BME280;43090;52.604;13.318;2023-08-07T08:24:24;99839.56;;;17.40;80.99
57234;BME280;43090;52.604;13.318;2023-08-07T08:27:29;99824.84;;;17.34;80.13
57234;BME280;43090;52.604;13.318;2023-08-07T08:30:17;99833.56;;;17.21;81.46
57234;BME280;43090;52.604;13.318;2023-08-07T08:32:44;99856.72;;;17.15;82.82
57234;BME280;43090;52.604;13.318;2023-08-07T08:35:11;99862.28;;;17.22;81.76
57234;BME280;43090;52.604;13.318;2023-08-07T08:37:44;99870.47;;;17.45;81.62
57234;BME280;43090;52.604;13.318;2023-08-07T08:40:11;99864.47;;;17.27;81.11
57234;BME280;43090;52.604;13.318;2023-08-07T08:42:50;99849.53;;;17.39;81.20
57234;BME280;43090;52.604;13.318;2023-08-07T08:45:20;99869.34;;;17.40;81.55
57234;BME280;43090;52.604;13.318;2023-08-07T08:47:49;99856.97;;;17.45;80.42
57234;BME280;43090;52.604;13.318;2023-08-07T08:50:20;99866.59;;;17.48;78.63
57234;BME280;43090;52.604;13.318;2023-08-07T08:52:48;99876.19;;;17.59;79.70
57234;BME280;43090;52.604;13.318;2023-08-07T08:55:17;99868.56;;;17.62;79.71
57234;BME280;43090;52.604;13.318;2023-08-07T08:57:46;99852.25;;;17.71;78.28
57234;BME280;43090;52.604;13.318;2023-08-07T09:00:14;99848.75;;;17.62;76.93
57234;BME280;43090;52.604;13.318;2023-08-07T09:02:49;99871.47;;;17.84;78.66
57234;BME280;43090;52.604;13.318;2023-08-07T09:05:17;99849.56;;;17.71;79.08
57234;BME280;43090;52.604;13.318;2023-08-07T09:07:44;99832.69;;;17.60;78.30
57234;BME280;43090;52.604;13.318;2023-08-07T09:10:24;99850.88;;;17.75;75.90
57234;BME280;43090;52.604;13.318;2023-08-07T09:13:14;99854.59;;;17.82;75.77
57234;BME280;43090;52.604;13.318;2023-08-07T09:15:43;99842.59;;;18.08;74.72
57234;BME280;43090;52.604;13.318;2023-08-07T09:18:19;99848.91;;;18.23;74.72
57234;BME280;43090;52.604;13.318;2023-08-07T09:20:47;99856.94;;;17.85;75.57
57234;BME280;43090;52.604;13.318;2023-08-07T09:23:16;99871.78;;;18.21;75.72
57234;BME280;43090;52.604;13.318;2023-08-07T09:25:43;99880.28;;;17.86;75.44
57234;BME280;43090;52.604;13.318;2023-08-07T09:28:10;99866.56;;;17.88;75.44
57234;BME280;43090;52.604;13.318;2023-08-07T09:30:39;99887.84;;;17.91;76.40
57234;BME280;43090;52.604;13.318;2023-08-07T09:33:11;99870.53;;;17.69;76.12
57234;BME280;43090;52.604;13.318;2023-08-07T09:35:39;99868.13;;;17.82;74.72
57234;BME280;43090;52.604;13.318;2023-08-07T09:38:07;99869.53;;;17.70;76.62
57234;BME280;43090;52.604;13.318;2023-08-07T09:40:57;99856.53;;;17.65;76.48
57234;BME280;43090;52.604;13.318;2023-08-07T09:43:23;99857.50;;;17.72;76.65
57234;BME280;43090;52.604;13.318;2023-08-07T09:45:50;99864.97;;;17.70;76.12
57234;BME280;43090;52.604;13.318;2023-08-07T09:48:24;99863.41;;;17.76;76.93
57234;BME280;43090;52.604;13.318;2023-08-07T09:51:01;99862.25;;;17.70;76.62
57234;BME280;43090;52.604;13.318;2023-08-07T09:53:31;99873.66;;;17.89;76.21
57234;BME280;43090;52.604;13.318;2023-08-07T09:56:01;99880.97;;;17.80;75.22
57234;BME280;43090;52.604;13.318;2023-08-07T09:58:29;99858.81;;;17.76;76.74
57234;BME280;43090;52.604;13.318;2023-08-07T10:00:59;99883.63;;;17.88;77.12
57234;BME280;43090;52.604;13.318;2023-08-07T10:03:34;99862.81;;;17.57;76.51
57234;BME280;43090;52.604;13.318;2023-08-07T10:06:06;99890.84;;;17.73;77.31
57234;BME280;43090;52.604;13.318;2023-08-07T10:08:51;99870.19;;;17.72;77.15
57234;BME280;43090;52.604;13.318;2023-08-07T10:11:35;99863.91;;;17.79;76.61
57234;BME280;43090;52.604;13.318;2023-08-07T10:14:04;99886.91;;;17.75;75.41
57234;BME280;43090;52.604;13.318;2023-08-07T10:16:40;99877.63;;;18.09;75.05
57234;BME280;43090;52.604;13.318;2023-08-07T10:23:17;99889.72;;;17.98;73.31
57234;BME280;43090;52.604;13.318;2023-08-07T10:25:45;99893.53;;;18.12;72.79
57234;BME280;43090;52.604;13.318;2023-08-07T10:28:22;99885.75;;;18.09;72.53
57234;BME280;43090;52.604;13.318;2023-08-07T10:30:55;99900.81;;;18.35;72.40
57234;BME280;43090;52.604;13.318;2023-08-07T10:33:25;99880.09;;;18.42;71.62
57234;BME280;43090;52.604;13.318;2023-08-07T10:35:52;99879.47;;;18.32;72.63
57234;BME280;43090;52.604;13.318;2023-08-07T10:38:25;99864.63;;;18.51;71.76
57234;BME280;43090;52.604;13.318;2023-08-07T10:41:16;99862.03;;;18.35;71.50
57234;BME280;43090;52.604;13.318;2023-08-07T10:51:44;99889.13;;;18.11;72.23
57234;BME280;43090;52.604;13.318;2023-08-07T10:54:19;99891.81;;;17.80;77.29
57234;BME280;43090;52.604;13.318;2023-08-07T10:56:52;99882.69;;;17.33;78.71
57234;BME280;43090;52.604;13.318;2023-08-07T10:59:22;99889.44;;;17.45;79.06
57234;BME280;43090;52.604;13.318;2023-08-07T11:02:07;99902.09;;;17.53;80.07
57234;BME280;43090;52.604;13.318;2023-08-07T11:04:37;99918.19;;;17.86;80.75
57234;BME280;43090;52.604;13.318;2023-08-07T11:07:04;99915.22;;;17.64;76.71
57234;BME280;43090;52.604;13.318;2023-08-07T11:09:35;99922.97;;;17.76;75.91
57234;BME280;43090;52.604;13.318;2023-08-07T11:12:51;99926.78;;;17.50;77.54
57234;BME280;43090;52.604;13.318;2023-08-07T11:15:17;99925.44;;;17.46;77.51
57234;BME280;43090;52.604;13.318;2023-08-07T11:17:44;99912.19;;;17.68;77.54
57234;BME280;43090;52.604;13.318;2023-08-07T11:20:12;99924.41;;;17.95;78.17
57234;BME280;43090;52.604;13.318;2023-08-07T11:22:39;99920.50;;;17.97;77.33
57234;BME280;43090;52.604;13.318;2023-08-07T11:25:06;99938.66;;;18.20;78.52
57234;BME280;43090;52.604;13.318;2023-08-07T11:27:36;99932.75;;;17.85;77.50
57234;BME280;43090;52.604;13.318;2023-08-07T11:30:11;99907.50;;;17.45;78.80
57234;BME280;43090;52.604;13.318;2023-08-07T11:32:38;99944.06;;;17.89;78.82
57234;BME280;43090;52.604;13.318;2023-08-07T11:35:05;99925.41;;;18.02;79.61
57234;BME280;43090;52.604;13.318;2023-08-07T11:37:35;99940.31;;;18.29;77.97
57234;BME280;43090;52.604;13.318;2023-08-07T11:40:04;99928.38;;;18.15;79.87
57234;BME280;43090;52.604;13.318;2023-08-07T11:42:34;99944.75;;;18.45;79.20
57234;BME280;43090;52.604;13.318;2023-08-07T11:45:01;99938.75;;;18.35;79.08
57234;BME280;43090;52.604;13.318;2023-08-07T11:47:30;99937.66;;;18.68;77.71
57234;BME280;43090;52.604;13.318;2023-08-07T11:50:18;99929.84;;;18.50;77.94
57234;BME280;43090;52.604;13.318;2023-08-07T11:52:50;99912.00;;;18.55;76.00
57234;BME280;43090;52.604;13.318;2023-08-07T11:55:17;99913.44;;;18.20;76.11
57234;BME280;43090;52.604;13.318;2023-08-07T11:57:47;99917.94;;;18.59;75.65
57234;BME280;43090;52.604;13.318;2023-08-07T12:00:14;99916.94;;;18.75;77.70
57234;BME280;43090;52.604;13.318;2023-08-07T12:02:42;99907.13;;;18.74;73.68
57234;BME280;43090;52.604;13.318;2023-08-07T12:05:13;99901.22;;;19.08;75.75
57234;BME280;43090;52.604;13.318;2023-08-07T12:07:39;99914.31;;;19.05;74.79
57234;BME280;43090;52.604;13.318;2023-08-07T12:10:07;99911.19;;;18.93;73.36
57234;BME280;43090;52.604;13.318;2023-08-07T12:16:38;99920.19;;;18.93;74.62
57234;BME280;43090;52.604;13.318;2023-08-07T12:26:40;99907.31;;;19.25;72.33
57234;BME280;43090;52.604;13.318;2023-08-07T12:29:15;99892.69;;;18.96;71.75
57234;BME280;43090;52.604;13.318;2023-08-07T12:31:44;99936.91;;;19.50;70.14
57234;BME280;43090;52.604;13.318;2023-08-07T12:34:14;99921.25;;;19.22;69.19
57234;BME280;43090;52.604;13.318;2023-08-07T12:36:45;99907.31;;;19.10;68.85
57234;BME280;43090;52.604;13.318;2023-08-07T12:39:24;99922.97;;;19.38;68.49
57234;BME280;43090;52.604;13.318;2023-08-07T12:42:13;99928.09;;;19.33;65.59
57234;BME280;43090;52.604;13.318;2023-08-07T12:44:49;99936.16;;;19.26;67.21
57234;BME280;43090;52.604;13.318;2023-08-07T12:47:17;99902.88;;;18.94;63.91
57234;BME280;43090;52.604;13.318;2023-08-07T12:52:40;99912.47;;;18.82;66.71
57234;BME280;43090;52.604;13.318;2023-08-07T12:55:07;99945.63;;;18.92;64.33
57234;BME280;43090;52.604;13.318;2023-08-07T12:57:37;99919.88;;;18.88;64.01
57234;BME280;43090;52.604;13.318;2023-08-07T13:00:10;99939.69;;;19.12;63.47
57234;BME280;43090;52.604;13.318;2023-08-07T13:02:48;99932.13;;;19.37;62.52
57234;BME280;43090;52.604;13.318;2023-08-07T13:05:17;99945.41;;;19.32;62.30
57234;BME280;43090;52.604;13.318;2023-08-07T13:07:45;99910.13;;;19.17;61.69
57234;BME280;43090;52.604;13.318;2023-08-07T13:10:15;99913.84;;;19.46;59.50
57234;BME280;43090;52.604;13.318;2023-08-07T13:12:44;99917.22;;;19.63;59.94
57234;BME280;43090;52.604;13.318;2023-08-07T13:15:13;99920.25;;;19.53;56.49
57234;BME280;43090;52.604;13.318;2023-08-07T13:17:46;99925.09;;;19.43;56.93
57234;BME280;43090;52.604;13.318;2023-08-07T13:20:13;99959.44;;;19.65;60.58
57234;BME280;43090;52.604;13.318;2023-08-07T13:22:46;99964.50;;;19.39;56.81
57234;BME280;43090;52.604;13.318;2023-08-07T13:25:13;99965.72;;;19.51;55.80
57234;BME280;43090;52.604;13.318;2023-08-07T13:27:40;99946.72;;;19.36;55.10
57234;BME280;43090;52.604;13.318;2023-08-07T13:30:17;99936.63;;;19.45;54.58
57234;BME280;43090;52.604;13.318;2023-08-07T13:32:49;99954.22;;;19.64;52.95
57234;BME280;43090;52.604;13.318;2023-08-07T13:35:15;100000.19;;;19.65;52.56
57234;BME280;43090;52.604;13.318;2023-08-07T13:37:44;99968.84;;;19.78;52.69
57234;BME280;43090;52.604;13.318;2023-08-07T13:40:11;99986.81;;;20.45;52.93
57234;BME280;43090;52.604;13.318;2023-08-07T13:42:38;99987.00;;;20.44;51.49
57234;BME280;43090;52.604;13.318;2023-08-07T13:45:05;99979.09;;;20.27;50.77
57234;BME280;43090;52.604;13.318;2023-08-07T13:47:33;99996.72;;;20.17;51.29
57234;BME280;43090;52.604;13.318;2023-08-07T13:50:00;100000.00;;;20.12;49.89
57234;BME280;43090;52.604;13.318;2023-08-07T13:52:29;100017.81;;;20.29;52.38
57234;BME280;43090;52.604;13.318;2023-08-07T13:54:58;99993.09;;;19.79;52.40
57234;BME280;43090;52.604;13.318;2023-08-07T13:57:27;99993.94;;;19.65;53.46
57234;BME280;43090;52.604;13.318;2023-08-07T13:59:53;100016.88;;;19.62;51.90
57234;BME280;43090;52.604;13.318;2023-08-07T14:02:21;100024.44;;;19.14;52.34
57234;BME280;43090;52.604;13.318;2023-08-07T14:04:47;100031.81;;;19.43;53.31